sensor_id;sensor_type;location;lat;lon;timestamp;P1;durP1;ratioP1;P2;durP2;ratioP2
52922;SDS011;38796;42.702;23.306;2023-06-10T00:01:44;0.50;;;0.40;;
52922;SDS011;38796;42.702;23.306;2023-06-10T00:03:44;1.03;;;0.73;;
52922;SDS011;38796;42.702;23.306;2023-06-10T00:05:42;1.67;;;0.63;;
52922;SDS011;38796;42.702;23.306;2023-06-10T00:07:40;6.23;;;0.97;;
52922;SDS011;38796;42.702;23.306;2023-06-10T00:09:38;10.00;;;0.77;;
52922;SDS011;38796;42.702;23.306;2023-06-10T00:11:36;1.77;;;0.80;;
52922;SDS011;38796;42.702;23.306;2023-06-10T00:13:35;2.23;;;1.00;;
52922;SDS011;38796;42.702;23.306;2023-06-10T00:15:35;1.43;;;1.00;;
52922;SDS011;38796;42.702;23.306;2023-06-10T00:17:33;4.00;;;1.17;;
52922;SDS011;38796;42.702;23.306;2023-06-10T00:19:31;4.77;;;1.87;;
52922;SDS011;38796;42.702;23.306;2023-06-10T00:21:31;1.83;;;1.20;;
52922;SDS011;38796;42.702;23.306;2023-06-10T00:23:34;3.17;;;1.38;;
52922;SDS011;38796;42.702;23.306;2023-06-10T00:25:34;6.03;;;1.73;;
52922;SDS011;38796;42.702;23.306;2023-06-10T00:27:32;1.67;;;1.37;;
52922;SDS011;38796;42.702;23.306;2023-06-10T00:29:31;5.53;;;1.37;;
52922;SDS011;38796;42.702;23.306;2023-06-10T00:31:31;1.73;;;1.23;;
52922;SDS011;38796;42.702;23.306;2023-06-10T00:33:29;3.23;;;1.70;;
52922;SDS011;38796;42.702;23.306;2023-06-10T00:35:27;2.77;;;1.20;;
52922;SDS011;38796;42.702;23.306;2023-06-10T00:37:25;2.70;;;1.07;;
52922;SDS011;38796;42.702;23.306;2023-06-10T00:39:23;1.33;;;1.13;;
52922;SDS011;38796;42.702;23.306;2023-06-10T00:41:21;2.13;;;1.40;;
52922;SDS011;38796;42.702;23.306;2023-06-10T00:43:19;2.03;;;1.00;;
52922;SDS011;38796;42.702;23.306;2023-06-10T00:45:17;1.90;;;0.97;;
52922;SDS011;38796;42.702;23.306;2023-06-10T00:47:17;3.50;;;1.17;;
52922;SDS011;38796;42.702;23.306;2023-06-10T00:49:16;2.40;;;1.20;;
52922;SDS011;38796;42.702;23.306;2023-06-10T00:51:14;3.97;;;1.17;;
52922;SDS011;38796;42.702;23.306;2023-06-10T00:53:13;3.13;;;1.33;;
52922;SDS011;38796;42.702;23.306;2023-06-10T00:55:11;2.77;;;1.30;;
52922;SDS011;38796;42.702;23.306;2023-06-10T00:57:10;1.93;;;1.40;;
52922;SDS011;38796;42.702;23.306;2023-06-10T00:59:10;3.33;;;2.13;;
52922;SDS011;38796;42.702;23.306;2023-06-10T01:01:08;3.00;;;2.17;;
52922;SDS011;38796;42.702;23.306;2023-06-10T01:03:09;3.13;;;2.40;;
52922;SDS011;38796;42.702;23.306;2023-06-10T01:05:09;4.57;;;2.67;;
52922;SDS011;38796;42.702;23.306;2023-06-10T01:07:08;3.53;;;2.40;;
52922;SDS011;38796;42.702;23.306;2023-06-10T01:09:11;8.27;;;4.50;;
52922;SDS011;38796;42.702;23.306;2023-06-10T01:11:13;6.47;;;5.27;;
52922;SDS011;38796;42.702;23.306;2023-06-10T01:13:13;16.53;;;8.00;;
52922;SDS011;38796;42.702;23.306;2023-06-10T01:15:11;12.57;;;6.87;;
52922;SDS011;38796;42.702;23.306;2023-06-10T01:17:09;9.27;;;5.63;;
52922;SDS011;38796;42.702;23.306;2023-06-10T01:19:09;8.00;;;5.87;;
52922;SDS011;38796;42.702;23.306;2023-06-10T01:21:08;7.43;;;4.43;;
52922;SDS011;38796;42.702;23.306;2023-06-10T01:23:09;7.03;;;3.60;;
52922;SDS011;38796;42.702;23.306;2023-06-10T01:25:07;4.93;;;2.60;;
52922;SDS011;38796;42.702;23.306;2023-06-10T01:27:08;4.23;;;2.47;;
52922;SDS011;38796;42.702;23.306;2023-06-10T01:29:10;4.45;;;1.80;;
52922;SDS011;38796;42.702;23.306;2023-06-10T01:31:09;2.43;;;2.00;;
52922;SDS011;38796;42.702;23.306;2023-06-10T01:33:09;5.67;;;1.90;;
52922;SDS011;38796;42.702;23.306;2023-06-10T01:35:08;3.77;;;2.47;;
52922;SDS011;38796;42.702;23.306;2023-06-10T01:37:07;2.83;;;2.03;;
52922;SDS011;38796;42.702;23.306;2023-06-10T01:39:10;2.17;;;1.63;;
52922;SDS011;38796;42.702;23.306;2023-06-10T01:41:10;7.90;;;2.00;;
52922;SDS011;38796;42.702;23.306;2023-06-10T01:43:09;3.60;;;1.40;;
52922;SDS011;38796;42.702;23.306;2023-06-10T01:45:08;2.80;;;1.70;;
52922;SDS011;38796;42.702;23.306;2023-06-10T01:47:07;3.60;;;1.80;;
52922;SDS011;38796;42.702;23.306;2023-06-10T01:49:05;2.13;;;1.90;;
52922;SDS011;38796;42.702;23.306;2023-06-10T01:51:03;1.80;;;1.70;;
52922;SDS011;38796;42.702;23.306;2023-06-10T01:53:01;2.43;;;2.13;;
52922;SDS011;38796;42.702;23.306;2023-06-10T01:55:01;3.27;;;2.10;;
52922;SDS011;38796;42.702;23.306;2023-06-10T01:56:59;4.80;;;2.50;;
52922;SDS011;38796;42.702;23.306;2023-06-10T01:58:57;4.23;;;2.47;;
52922;SDS011;38796;42.702;23.306;2023-06-10T02:00:55;2.47;;;1.90;;
52922;SDS011;38796;42.702;23.306;2023-06-10T02:02:53;2.37;;;1.60;;
52922;SDS011;38796;42.702;23.306;2023-06-10T02:04:52;2.90;;;2.27;;
52922;SDS011;38796;42.702;23.306;2023-06-10T02:06:50;3.13;;;2.13;;
52922;SDS011;38796;42.702;23.306;2023-06-10T02:08:48;5.23;;;1.63;;
52922;SDS011;38796;42.702;23.306;2023-06-10T02:10:47;2.73;;;1.50;;
52922;SDS011;38796;42.702;23.306;2023-06-10T02:12:45;1.67;;;1.57;;
52922;SDS011;38796;42.702;23.306;2023-06-10T02:14:43;2.60;;;1.60;;
52922;SDS011;38796;42.702;23.306;2023-06-10T02:16:41;5.00;;;1.23;;
52922;SDS011;38796;42.702;23.306;2023-06-10T02:18:43;1.67;;;1.57;;
52922;SDS011;38796;42.702;23.306;2023-06-10T02:20:42;3.40;;;1.47;;
52922;SDS011;38796;42.702;23.306;2023-06-10T02:22:40;1.73;;;1.43;;
52922;SDS011;38796;42.702;23.306;2023-06-10T02:24:38;1.97;;;1.50;;
52922;SDS011;38796;42.702;23.306;2023-06-10T02:26:38;1.90;;;1.43;;
52922;SDS011;38796;42.702;23.306;2023-06-10T02:28:37;2.07;;;1.10;;
52922;SDS011;38796;42.702;23.306;2023-06-10T02:30:35;2.13;;;1.17;;
52922;SDS011;38796;42.702;23.306;2023-06-10T02:32:33;1.30;;;1.20;;
52922;SDS011;38796;42.702;23.306;2023-06-10T02:34:31;1.13;;;1.03;;
52922;SDS011;38796;42.702;23.306;2023-06-10T02:36:30;1.27;;;0.80;;
52922;SDS011;38796;42.702;23.306;2023-06-10T02:38:28;2.53;;;1.53;;
52922;SDS011;38796;42.702;23.306;2023-06-10T02:40:27;4.70;;;0.90;;
52922;SDS011;38796;42.702;23.306;2023-06-10T02:42:26;6.03;;;2.17;;
52922;SDS011;38796;42.702;23.306;2023-06-10T02:44:24;4.27;;;2.00;;
52922;SDS011;38796;42.702;23.306;2023-06-10T02:46:22;1.83;;;1.17;;
52922;SDS011;38796;42.702;23.306;2023-06-10T02:48:23;8.27;;;1.40;;
52922;SDS011;38796;42.702;23.306;2023-06-10T02:50:21;3.63;;;1.23;;
52922;SDS011;38796;42.702;23.306;2023-06-10T02:52:30;1.43;;;1.00;;
52922;SDS011;38796;42.702;23.306;2023-06-10T02:54:28;1.37;;;0.80;;
52922;SDS011;38796;42.702;23.306;2023-06-10T02:56:27;2.47;;;1.27;;
52922;SDS011;38796;42.702;23.306;2023-06-10T02:58:29;2.93;;;1.63;;
52922;SDS011;38796;42.702;23.306;2023-06-10T03:00:27;3.60;;;2.03;;
52922;SDS011;38796;42.702;23.306;2023-06-10T03:02:26;2.07;;;1.23;;
52922;SDS011;38796;42.702;23.306;2023-06-10T03:04:26;2.17;;;1.43;;
52922;SDS011;38796;42.702;23.306;2023-06-10T03:06:34;2.37;;;1.43;;
52922;SDS011;38796;42.702;23.306;2023-06-10T03:08:40;3.40;;;1.23;;
52922;SDS011;38796;42.702;23.306;2023-06-10T03:10:43;2.27;;;1.53;;
52922;SDS011;38796;42.702;23.306;2023-06-10T03:12:45;6.33;;;1.57;;
52922;SDS011;38796;42.702;23.306;2023-06-10T03:14:44;3.70;;;1.60;;
52922;SDS011;38796;42.702;23.306;2023-06-10T03:16:42;3.23;;;1.33;;
52922;SDS011;38796;42.702;23.306;2023-06-10T03:18:40;2.60;;;1.70;;
52922;SDS011;38796;42.702;23.306;2023-06-10T03:20:38;6.20;;;2.27;;
52922;SDS011;38796;42.702;23.306;2023-06-10T03:22:39;4.07;;;2.03;;
52922;SDS011;38796;42.702;23.306;2023-06-10T03:24:38;3.80;;;2.33;;
52922;SDS011;38796;42.702;23.306;2023-06-10T03:26:39;3.37;;;1.20;;
52922;SDS011;38796;42.702;23.306;2023-06-10T03:28:37;3.43;;;2.23;;
52922;SDS011;38796;42.702;23.306;2023-06-10T03:30:38;4.07;;;2.33;;
52922;SDS011;38796;42.702;23.306;2023-06-10T03:32:36;7.10;;;1.77;;
52922;SDS011;38796;42.702;23.306;2023-06-10T03:34:36;5.63;;;2.60;;
52922;SDS011;38796;42.702;23.306;2023-06-10T03:36:35;1.63;;;1.40;;
52922;SDS011;38796;42.702;23.306;2023-06-10T03:38:34;2.60;;;2.30;;
52922;SDS011;38796;42.702;23.306;2023-06-10T03:40:34;3.77;;;2.40;;
52922;SDS011;38796;42.702;23.306;2023-06-10T03:42:33;4.43;;;1.70;;
52922;SDS011;38796;42.702;23.306;2023-06-10T03:44:31;5.47;;;2.00;;
52922;SDS011;38796;42.702;23.306;2023-06-10T03:46:30;3.13;;;1.63;;
52922;SDS011;38796;42.702;23.306;2023-06-10T03:48:28;4.90;;;2.40;;
52922;SDS011;38796;42.702;23.306;2023-06-10T03:50:27;2.40;;;2.20;;
52922;SDS011;38796;42.702;23.306;2023-06-10T03:52:25;2.77;;;1.47;;
52922;SDS011;38796;42.702;23.306;2023-06-10T03:54:23;2.63;;;1.53;;
52922;SDS011;38796;42.702;23.306;2023-06-10T03:56:21;2.50;;;1.60;;
52922;SDS011;38796;42.702;23.306;2023-06-10T03:58:19;3.00;;;2.07;;
52922;SDS011;38796;42.702;23.306;2023-06-10T04:00:18;1.60;;;1.50;;
52922;SDS011;38796;42.702;23.306;2023-06-10T04:02:19;2.60;;;1.60;;
52922;SDS011;38796;42.702;23.306;2023-06-10T04:04:17;3.33;;;1.17;;
52922;SDS011;38796;42.702;23.306;2023-06-10T04:06:16;3.03;;;1.27;;
52922;SDS011;38796;42.702;23.306;2023-06-10T04:08:13;1.33;;;1.23;;
52922;SDS011;38796;42.702;23.306;2023-06-10T04:10:12;4.60;;;1.63;;
52922;SDS011;38796;42.702;23.306;2023-06-10T04:12:10;1.70;;;1.57;;
52922;SDS011;38796;42.702;23.306;2023-06-10T04:14:08;2.10;;;0.80;;
52922;SDS011;38796;42.702;23.306;2023-06-10T04:16:07;1.97;;;1.27;;
52922;SDS011;38796;42.702;23.306;2023-06-10T04:18:07;2.60;;;1.53;;
52922;SDS011;38796;42.702;23.306;2023-06-10T04:20:05;2.07;;;0.90;;
52922;SDS011;38796;42.702;23.306;2023-06-10T04:22:06;1.63;;;1.17;;
52922;SDS011;38796;42.702;23.306;2023-06-10T04:24:04;1.27;;;1.17;;
52922;SDS011;38796;42.702;23.306;2023-06-10T04:26:02;4.10;;;1.50;;
52922;SDS011;38796;42.702;23.306;2023-06-10T04:28:02;3.47;;;1.33;;
52922;SDS011;38796;42.702;23.306;2023-06-10T04:30:00;2.23;;;1.10;;
52922;SDS011;38796;42.702;23.306;2023-06-10T04:31:59;1.70;;;1.60;;
52922;SDS011;38796;42.702;23.306;2023-06-10T04:34:01;1.80;;;1.60;;
52922;SDS011;38796;42.702;23.306;2023-06-10T04:35:59;1.13;;;0.80;;
52922;SDS011;38796;42.702;23.306;2023-06-10T04:37:59;2.00;;;1.87;;
52922;SDS011;38796;42.702;23.306;2023-06-10T04:39:59;2.57;;;1.80;;
52922;SDS011;38796;42.702;23.306;2023-06-10T04:41:58;1.87;;;1.63;;
52922;SDS011;38796;42.702;23.306;2023-06-10T04:43:58;2.30;;;1.83;;
52922;SDS011;38796;42.702;23.306;2023-06-10T04:45:56;5.73;;;1.63;;
52922;SDS011;38796;42.702;23.306;2023-06-10T04:47:54;5.50;;;1.83;;
52922;SDS011;38796;42.702;23.306;2023-06-10T04:49:54;1.50;;;1.40;;
52922;SDS011;38796;42.702;23.306;2023-06-10T04:51:51;4.53;;;2.23;;
52922;SDS011;38796;42.702;23.306;2023-06-10T04:53:50;2.07;;;1.27;;
52922;SDS011;38796;42.702;23.306;2023-06-10T04:55:49;5.20;;;2.30;;
52922;SDS011;38796;42.702;23.306;2023-06-10T04:57:46;3.47;;;2.20;;
52922;SDS011;38796;42.702;23.306;2023-06-10T04:59:47;2.90;;;1.10;;
52922;SDS011;38796;42.702;23.306;2023-06-10T05:01:45;3.40;;;1.30;;
52922;SDS011;38796;42.702;23.306;2023-06-10T05:03:43;1.40;;;1.30;;
52922;SDS011;38796;42.702;23.306;2023-06-10T05:05:43;3.90;;;2.00;;
52922;SDS011;38796;42.702;23.306;2023-06-10T05:07:40;1.53;;;1.23;;
52922;SDS011;38796;42.702;23.306;2023-06-10T05:09:38;2.80;;;1.53;;
52922;SDS011;38796;42.702;23.306;2023-06-10T05:11:36;2.90;;;1.27;;
52922;SDS011;38796;42.702;23.306;2023-06-10T05:13:34;2.67;;;1.10;;
52922;SDS011;38796;42.702;23.306;2023-06-10T05:15:32;2.63;;;0.93;;
52922;SDS011;38796;42.702;23.306;2023-06-10T05:17:30;3.97;;;1.10;;
52922;SDS011;38796;42.702;23.306;2023-06-10T05:19:28;3.60;;;1.40;;
52922;SDS011;38796;42.702;23.306;2023-06-10T05:21:28;1.57;;;1.23;;
52922;SDS011;38796;42.702;23.306;2023-06-10T05:23:26;3.63;;;1.20;;
52922;SDS011;38796;42.702;23.306;2023-06-10T05:25:25;2.93;;;1.50;;
52922;SDS011;38796;42.702;23.306;2023-06-10T05:27:23;1.40;;;1.23;;
52922;SDS011;38796;42.702;23.306;2023-06-10T05:29:21;3.17;;;1.53;;
52922;SDS011;38796;42.702;23.306;2023-06-10T05:31:19;2.00;;;1.40;;
52922;SDS011;38796;42.702;23.306;2023-06-10T05:33:17;3.23;;;1.90;;
52922;SDS011;38796;42.702;23.306;2023-06-10T05:35:15;2.37;;;1.50;;
52922;SDS011;38796;42.702;23.306;2023-06-10T05:37:15;7.80;;;1.90;;
52922;SDS011;38796;42.702;23.306;2023-06-10T05:39:13;2.97;;;1.63;;
52922;SDS011;38796;42.702;23.306;2023-06-10T05:41:11;2.73;;;1.80;;
52922;SDS011;38796;42.702;23.306;2023-06-10T05:43:09;5.43;;;2.17;;
52922;SDS011;38796;42.702;23.306;2023-06-10T05:45:08;7.30;;;1.73;;
52922;SDS011;38796;42.702;23.306;2023-06-10T05:47:06;1.50;;;1.37;;
52922;SDS011;38796;42.702;23.306;2023-06-10T05:49:04;1.10;;;1.00;;
52922;SDS011;38796;42.702;23.306;2023-06-10T05:51:02;3.97;;;1.10;;
52922;SDS011;38796;42.702;23.306;2023-06-10T05:53:02;1.97;;;0.80;;
52922;SDS011;38796;42.702;23.306;2023-06-10T05:55:00;1.40;;;1.10;;
52922;SDS011;38796;42.702;23.306;2023-06-10T05:56:58;6.00;;;1.50;;
52922;SDS011;38796;42.702;23.306;2023-06-10T05:58:56;2.57;;;1.40;;
52922;SDS011;38796;42.702;23.306;2023-06-10T06:00:54;2.07;;;1.83;;
52922;SDS011;38796;42.702;23.306;2023-06-10T06:02:52;2.43;;;2.00;;
52922;SDS011;38796;42.702;23.306;2023-06-10T06:04:51;1.77;;;1.43;;
52922;SDS011;38796;42.702;23.306;2023-06-10T06:06:49;3.20;;;2.07;;
52922;SDS011;38796;42.702;23.306;2023-06-10T06:08:48;11.83;;;2.00;;
52922;SDS011;38796;42.702;23.306;2023-06-10T06:10:46;1.60;;;1.50;;
52922;SDS011;38796;42.702;23.306;2023-06-10T06:12:44;1.30;;;0.97;;
52922;SDS011;38796;42.702;23.306;2023-06-10T06:14:42;1.93;;;1.33;;
52922;SDS011;38796;42.702;23.306;2023-06-10T06:16:41;3.90;;;1.97;;
52922;SDS011;38796;42.702;23.306;2023-06-10T06:18:39;4.97;;;1.50;;
52922;SDS011;38796;42.702;23.306;2023-06-10T06:20:37;1.83;;;1.47;;
52922;SDS011;38796;42.702;23.306;2023-06-10T06:22:35;1.73;;;1.03;;
52922;SDS011;38796;42.702;23.306;2023-06-10T06:24:34;1.00;;;0.90;;
52922;SDS011;38796;42.702;23.306;2023-06-10T06:26:32;3.43;;;1.33;;
52922;SDS011;38796;42.702;23.306;2023-06-10T06:28:30;1.00;;;1.00;;
52922;SDS011;38796;42.702;23.306;2023-06-10T06:30:28;1.93;;;0.93;;
52922;SDS011;38796;42.702;23.306;2023-06-10T06:32:26;4.57;;;1.77;;
52922;SDS011;38796;42.702;23.306;2023-06-10T06:34:24;4.67;;;1.37;;
52922;SDS011;38796;42.702;23.306;2023-06-10T06:36:22;3.60;;;0.97;;
52922;SDS011;38796;42.702;23.306;2023-06-10T06:38:20;7.33;;;0.80;;
52922;SDS011;38796;42.702;23.306;2023-06-10T06:40:19;1.00;;;0.90;;
52922;SDS011;38796;42.702;23.306;2023-06-10T06:42:17;1.80;;;0.93;;
52922;SDS011;38796;42.702;23.306;2023-06-10T06:44:25;3.00;;;1.30;;
52922;SDS011;38796;42.702;23.306;2023-06-10T06:46:23;0.80;;;0.70;;
52922;SDS011;38796;42.702;23.306;2023-06-10T06:48:21;1.83;;;0.70;;
52922;SDS011;38796;42.702;23.306;2023-06-10T06:50:19;3.00;;;0.87;;
52922;SDS011;38796;42.702;23.306;2023-06-10T06:52:17;1.47;;;0.90;;
52922;SDS011;38796;42.702;23.306;2023-06-10T06:54:15;3.43;;;0.80;;
52922;SDS011;38796;42.702;23.306;2023-06-10T06:56:14;3.33;;;0.60;;
52922;SDS011;38796;42.702;23.306;2023-06-10T06:58:12;1.20;;;0.70;;
52922;SDS011;38796;42.702;23.306;2023-06-10T07:00:11;2.23;;;0.70;;
52922;SDS011;38796;42.702;23.306;2023-06-10T07:02:10;2.07;;;1.07;;
52922;SDS011;38796;42.702;23.306;2023-06-10T07:04:08;0.90;;;0.83;;
52922;SDS011;38796;42.702;23.306;2023-06-10T07:06:06;1.37;;;0.53;;
52922;SDS011;38796;42.702;23.306;2023-06-10T07:08:05;7.70;;;1.07;;
52922;SDS011;38796;42.702;23.306;2023-06-10T07:10:03;3.90;;;1.30;;
52922;SDS011;38796;42.702;23.306;2023-06-10T07:12:03;1.20;;;0.80;;
52922;SDS011;38796;42.702;23.306;2023-06-10T07:14:02;0.83;;;0.67;;
52922;SDS011;38796;42.702;23.306;2023-06-10T07:16:00;1.90;;;0.63;;
52922;SDS011;38796;42.702;23.306;2023-06-10T07:17:58;2.00;;;0.93;;
52922;SDS011;38796;42.702;23.306;2023-06-10T07:19:56;0.60;;;0.57;;
52922;SDS011;38796;42.702;23.306;2023-06-10T07:21:56;0.90;;;0.77;;
52922;SDS011;38796;42.702;23.306;2023-06-10T07:23:54;0.40;;;0.40;;
52922;SDS011;38796;42.702;23.306;2023-06-10T07:25:52;2.07;;;0.80;;
52922;SDS011;38796;42.702;23.306;2023-06-10T07:27:51;4.67;;;0.90;;
52922;SDS011;38796;42.702;23.306;2023-06-10T07:29:50;0.50;;;0.47;;
52922;SDS011;38796;42.702;23.306;2023-06-10T07:31:48;1.07;;;0.97;;
52922;SDS011;38796;42.702;23.306;2023-06-10T07:33:46;1.77;;;0.90;;
52922;SDS011;38796;42.702;23.306;2023-06-10T07:35:44;2.57;;;0.83;;
52922;SDS011;38796;42.702;23.306;2023-06-10T07:37:42;3.03;;;0.20;;
52922;SDS011;38796;42.702;23.306;2023-06-10T07:39:40;0.70;;;0.40;;
52922;SDS011;38796;42.702;23.306;2023-06-10T07:41:39;1.77;;;0.17;;
52922;SDS011;38796;42.702;23.306;2023-06-10T07:43:38;1.87;;;0.50;;
52922;SDS011;38796;42.702;23.306;2023-06-10T07:45:36;0.60;;;0.33;;
52922;SDS011;38796;42.702;23.306;2023-06-10T07:47:34;1.23;;;0.40;;
52922;SDS011;38796;42.702;23.306;2023-06-10T07:49:32;0.70;;;0.40;;
52922;SDS011;38796;42.702;23.306;2023-06-10T07:51:30;10.20;;;1.43;;
52922;SDS011;38796;42.702;23.306;2023-06-10T07:53:28;1.13;;;0.20;;
52922;SDS011;38796;42.702;23.306;2023-06-10T07:55:26;1.67;;;0.30;;
52922;SDS011;38796;42.702;23.306;2023-06-10T07:57:24;1.02;;;0.30;;
52922;SDS011;38796;42.702;23.306;2023-06-10T07:59:23;4.85;;;0.73;;
52922;SDS011;38796;42.702;23.306;2023-06-10T08:01:22;5.03;;;0.77;;
52922;SDS011;38796;42.702;23.306;2023-06-10T08:03:20;4.90;;;0.32;;
52922;SDS011;38796;42.702;23.306;2023-06-10T08:05:19;1.48;;;0.47;;
52922;SDS011;38796;42.702;23.306;2023-06-10T08:07:17;0.40;;;0.10;;
52922;SDS011;38796;42.702;23.306;2023-06-10T08:09:15;1.02;;;0.38;;
52922;SDS011;38796;42.702;23.306;2023-06-10T08:11:14;1.05;;;0.22;;
52922;SDS011;38796;42.702;23.306;2023-06-10T08:13:12;2.28;;;0.00;;
52922;SDS011;38796;42.702;23.306;2023-06-10T08:15:12;0.40;;;0.10;;
52922;SDS011;38796;42.702;23.306;2023-06-10T08:17:10;5.45;;;0.30;;
52922;SDS011;38796;42.702;23.306;2023-06-10T08:19:08;0.30;;;0.17;;
52922;SDS011;38796;42.702;23.306;2023-06-10T08:21:06;1.08;;;0.40;;
52922;SDS011;38796;42.702;23.306;2023-06-10T08:23:04;1.45;;;0.10;;
52922;SDS011;38796;42.702;23.306;2023-06-10T08:25:02;0.68;;;0.10;;
52922;SDS011;38796;42.702;23.306;2023-06-10T08:27:01;0.52;;;0.20;;
52922;SDS011;38796;42.702;23.306;2023-06-10T08:28:58;3.22;;;0.10;;
52922;SDS011;38796;42.702;23.306;2023-06-10T08:30:58;1.65;;;0.40;;
52922;SDS011;38796;42.702;23.306;2023-06-10T08:32:56;3.92;;;0.00;;
52922;SDS011;38796;42.702;23.306;2023-06-10T08:34:54;1.95;;;0.10;;
52922;SDS011;38796;42.702;23.306;2023-06-10T08:36:52;0.90;;;0.10;;
52922;SDS011;38796;42.702;23.306;2023-06-10T08:38:51;1.65;;;0.10;;
52922;SDS011;38796;42.702;23.306;2023-06-10T08:40:50;0.45;;;0.10;;
52922;SDS011;38796;42.702;23.306;2023-06-10T08:42:49;0.40;;;0.10;;
52922;SDS011;38796;42.702;23.306;2023-06-10T08:44:50;0.20;;;0.10;;
52922;SDS011;38796;42.702;23.306;2023-06-10T08:46:52;0.40;;;0.10;;
52922;SDS011;38796;42.702;23.306;2023-06-10T08:48:51;0.10;;;0.00;;
52922;SDS011;38796;42.702;23.306;2023-06-10T08:50:51;0.40;;;0.10;;
52922;SDS011;38796;42.702;23.306;2023-06-10T08:52:50;0.75;;;0.20;;
52922;SDS011;38796;42.702;23.306;2023-06-10T08:54:49;0.50;;;0.10;;
52922;SDS011;38796;42.702;23.306;2023-06-10T08:56:48;0.22;;;0.22;;
52922;SDS011;38796;42.702;23.306;2023-06-10T08:58:47;0.20;;;0.20;;
52922;SDS011;38796;42.702;23.306;2023-06-10T09:00:45;2.20;;;0.32;;
52922;SDS011;38796;42.702;23.306;2023-06-10T09:02:44;0.30;;;0.10;;
52922;SDS011;38796;42.702;23.306;2023-06-10T09:04:43;0.93;;;0.10;;
52922;SDS011;38796;42.702;23.306;2023-06-10T09:06:42;0.20;;;0.10;;
52922;SDS011;38796;42.702;23.306;2023-06-10T09:08:40;0.30;;;0.10;;
52922;SDS011;38796;42.702;23.306;2023-06-10T09:10:38;1.77;;;0.20;;
52922;SDS011;38796;42.702;23.306;2023-06-10T09:12:38;0.52;;;0.30;;
52922;SDS011;38796;42.702;23.306;2023-06-10T09:14:35;0.10;;;0.00;;
52922;SDS011;38796;42.702;23.306;2023-06-10T09:16:34;0.73;;;0.17;;
52922;SDS011;38796;42.702;23.306;2023-06-10T09:18:33;0.65;;;0.10;;
52922;SDS011;38796;42.702;23.306;2023-06-10T09:20:31;0.68;;;0.20;;
52922;SDS011;38796;42.702;23.306;2023-06-10T09:22:29;1.35;;;0.30;;
52922;SDS011;38796;42.702;23.306;2023-06-10T09:24:27;0.95;;;0.28;;
52922;SDS011;38796;42.702;23.306;2023-06-10T09:26:27;0.30;;;0.30;;
52922;SDS011;38796;42.702;23.306;2023-06-10T09:28:27;1.13;;;0.65;;
52922;SDS011;38796;42.702;23.306;2023-06-10T09:30:25;0.55;;;0.10;;
52922;SDS011;38796;42.702;23.306;2023-06-10T09:32:24;0.40;;;0.10;;
52922;SDS011;38796;42.702;23.306;2023-06-10T09:34:24;1.30;;;0.30;;
52922;SDS011;38796;42.702;23.306;2023-06-10T09:36:23;0.53;;;0.40;;
52922;SDS011;38796;42.702;23.306;2023-06-10T09:38:21;1.40;;;0.20;;
52922;SDS011;38796;42.702;23.306;2023-06-10T09:40:19;1.48;;;0.43;;
52922;SDS011;38796;42.702;23.306;2023-06-10T09:42:18;0.50;;;0.10;;
52922;SDS011;38796;42.702;23.306;2023-06-10T09:44:16;0.20;;;0.17;;
52922;SDS011;38796;42.702;23.306;2023-06-10T09:46:15;0.95;;;0.10;;
52922;SDS011;38796;42.702;23.306;2023-06-10T09:48:14;0.95;;;0.10;;
52922;SDS011;38796;42.702;23.306;2023-06-10T09:50:13;0.75;;;0.30;;
52922;SDS011;38796;42.702;23.306;2023-06-10T09:52:12;0.40;;;0.10;;
52922;SDS011;38796;42.702;23.306;2023-06-10T09:54:10;0.93;;;0.10;;
52922;SDS011;38796;42.702;23.306;2023-06-10T09:56:08;1.60;;;0.10;;
52922;SDS011;38796;42.702;23.306;2023-06-10T09:58:06;3.97;;;0.13;;
52922;SDS011;38796;42.702;23.306;2023-06-10T10:00:05;0.25;;;0.13;;
52922;SDS011;38796;42.702;23.306;2023-06-10T10:02:09;0.88;;;0.00;;
52922;SDS011;38796;42.702;23.306;2023-06-10T10:04:11;1.02;;;0.10;;
52922;SDS011;38796;42.702;23.306;2023-06-10T10:06:10;3.80;;;0.17;;
52922;SDS011;38796;42.702;23.306;2023-06-10T10:08:09;0.82;;;0.00;;
52922;SDS011;38796;42.702;23.306;2023-06-10T10:10:07;0.10;;;0.00;;
52922;SDS011;38796;42.702;23.306;2023-06-10T10:12:07;0.10;;;0.00;;
52922;SDS011;38796;42.702;23.306;2023-06-10T10:14:09;0.10;;;0.00;;
52922;SDS011;38796;42.702;23.306;2023-06-10T10:16:09;0.13;;;0.00;;
52922;SDS011;38796;42.702;23.306;2023-06-10T10:18:09;0.22;;;0.10;;
52922;SDS011;38796;42.702;23.306;2023-06-10T10:20:08;0.60;;;0.00;;
52922;SDS011;38796;42.702;23.306;2023-06-10T10:22:07;0.10;;;0.10;;
52922;SDS011;38796;42.702;23.306;2023-06-10T10:24:08;0.20;;;0.00;;
52922;SDS011;38796;42.702;23.306;2023-06-10T10:26:09;2.55;;;0.00;;
52922;SDS011;38796;42.702;23.306;2023-06-10T10:28:08;0.20;;;0.00;;
52922;SDS011;38796;42.702;23.306;2023-06-10T10:30:06;1.25;;;0.10;;
52922;SDS011;38796;42.702;23.306;2023-06-10T10:32:07;1.00;;;0.10;;
52922;SDS011;38796;42.702;23.306;2023-06-10T10:34:06;0.63;;;0.10;;
52922;SDS011;38796;42.702;23.306;2023-06-10T10:36:05;0.32;;;0.05;;
52922;SDS011;38796;42.702;23.306;2023-06-10T10:38:05;0.40;;;0.10;;
52922;SDS011;38796;42.702;23.306;2023-06-10T10:40:04;2.75;;;0.00;;
52922;SDS011;38796;42.702;23.306;2023-06-10T10:42:03;0.20;;;0.10;;
52922;SDS011;38796;42.702;23.306;2023-06-10T10:44:02;0.17;;;0.00;;
52922;SDS011;38796;42.702;23.306;2023-06-10T10:46:03;1.20;;;0.10;;
52922;SDS011;38796;42.702;23.306;2023-06-10T10:48:05;3.10;;;0.00;;
52922;SDS011;38796;42.702;23.306;2023-06-10T10:50:12;0.65;;;0.15;;
52922;SDS011;38796;42.702;23.306;2023-06-10T10:52:11;2.58;;;0.00;;
52922;SDS011;38796;42.702;23.306;2023-06-10T10:54:13;0.30;;;0.20;;
52922;SDS011;38796;42.702;23.306;2023-06-10T10:56:12;0.47;;;0.10;;
52922;SDS011;38796;42.702;23.306;2023-06-10T10:58:11;0.45;;;0.08;;
52922;SDS011;38796;42.702;23.306;2023-06-10T11:00:12;0.93;;;0.10;;
52922;SDS011;38796;42.702;23.306;2023-06-10T11:02:35;0.20;;;0.20;;
52922;SDS011;38796;42.702;23.306;2023-06-10T11:04:35;0.47;;;0.20;;
52922;SDS011;38796;42.702;23.306;2023-06-10T11:06:33;0.20;;;0.10;;
52922;SDS011;38796;42.702;23.306;2023-06-10T11:08:47;0.38;;;0.30;;
52922;SDS011;38796;42.702;23.306;2023-06-10T11:10:51;0.65;;;0.17;;
52922;SDS011;38796;42.702;23.306;2023-06-10T11:12:50;0.30;;;0.10;;
52922;SDS011;38796;42.702;23.306;2023-06-10T11:14:53;0.50;;;0.30;;
52922;SDS011;38796;42.702;23.306;2023-06-10T11:16:51;2.28;;;0.28;;
52922;SDS011;38796;42.702;23.306;2023-06-10T11:18:53;0.30;;;0.20;;
52922;SDS011;38796;42.702;23.306;2023-06-10T11:20:52;2.05;;;0.30;;
52922;SDS011;38796;42.702;23.306;2023-06-10T11:22:58;0.50;;;0.30;;
52922;SDS011;38796;42.702;23.306;2023-06-10T11:24:56;0.93;;;0.30;;
52922;SDS011;38796;42.702;23.306;2023-06-10T11:29:10;0.30;;;0.10;;
52922;SDS011;38796;42.702;23.306;2023-06-10T11:31:08;0.30;;;0.10;;
52922;SDS011;38796;42.702;23.306;2023-06-10T11:33:06;0.83;;;0.50;;
52922;SDS011;38796;42.702;23.306;2023-06-10T11:35:05;1.03;;;0.40;;
52922;SDS011;38796;42.702;23.306;2023-06-10T11:37:05;0.30;;;0.20;;
52922;SDS011;38796;42.702;23.306;2023-06-10T11:39:03;0.73;;;0.20;;
52922;SDS011;38796;42.702;23.306;2023-06-10T11:41:02;3.27;;;0.20;;
52922;SDS011;38796;42.702;23.306;2023-06-10T11:43:00;0.93;;;0.20;;
52922;SDS011;38796;42.702;23.306;2023-06-10T11:45:00;2.50;;;0.20;;
52922;SDS011;38796;42.702;23.306;2023-06-10T11:46:59;0.53;;;0.23;;
52922;SDS011;38796;42.702;23.306;2023-06-10T11:48:58;3.90;;;0.30;;